BON101A FAOR-FACT
Flight info
| Callsign | BON101A |
|---|---|
| Flight time | N/A |
| Altitude | 36000 |
| Route | RAGUL3A RAGUL UQ10 DUMDO UZ26 ERDAS ERDAS1B |
| Aircraft | A319/M-SDE3FGHIRWY/LB1 |
Departure
| Time | 2026-04-30 14:35 |
|---|---|
| Airport | O.R. Tambo International Airport (FAOR) |
Arrival
| Time | N/A |
|---|---|
| Airport | Cape Town International Airport (FACT) |
| Time | Latitude | Longitude | Altitude | Speed | Heading |
|---|---|---|---|---|---|
| 2026-04-30 14:13 | -26.13572 | 28.23438 | 5547 ft | 0 kts | 96° |
| 2026-04-30 14:26 | -26.13568 | 28.23404 | 5547 ft | 4 kts | 96° |
| 2026-04-30 14:26 | -26.13566 | 28.23380 | 5547 ft | 4 kts | 105° |
| 2026-04-30 14:26 | -26.13533 | 28.23361 | 5547 ft | 0 kts | 186° |
| 2026-04-30 14:29 | -26.13549 | 28.23359 | 5547 ft | 3 kts | 186° |
| 2026-04-30 14:29 | -26.13602 | 28.23353 | 5547 ft | 6 kts | 186° |
| 2026-04-30 14:30 | -26.13795 | 28.23330 | 5547 ft | 11 kts | 186° |
| 2026-04-30 14:31 | -26.13920 | 28.23294 | 5549 ft | 12 kts | 195° |
| 2026-04-30 14:31 | -26.14090 | 28.23243 | 5547 ft | 13 kts | 196° |
| 2026-04-30 14:31 | -26.14176 | 28.23216 | 5552 ft | 12 kts | 195° |
| 2026-04-30 14:32 | -26.14264 | 28.23201 | 5558 ft | 5 kts | 169° |
| 2026-04-30 14:32 | -26.14309 | 28.23213 | 5562 ft | 5 kts | 162° |
| 2026-04-30 14:32 | -26.14328 | 28.23220 | 5563 ft | 2 kts | 162° |
| 2026-04-30 14:33 | -26.14376 | 28.23234 | 5563 ft | 13 kts | 166° |
| 2026-04-30 14:33 | -26.14571 | 28.23289 | 5564 ft | 16 kts | 161° |
| 2026-04-30 14:33 | -26.14617 | 28.23390 | 5563 ft | 13 kts | 104° |
| 2026-04-30 14:34 | -26.14560 | 28.23461 | 5561 ft | 20 kts | 15° |
| 2026-04-30 14:34 | -26.14296 | 28.23543 | 5562 ft | 62 kts | 16° |
| 2026-04-30 14:34 | -26.13711 | 28.23724 | 5554 ft | 113 kts | 15° |
| 2026-04-30 14:34 | -26.12803 | 28.24005 | 5544 ft | 160 kts | 15° |
| 2026-04-30 14:35 | -26.10509 | 28.24733 | 6618 ft | 172 kts | 13° |
| 2026-04-30 14:35 | -26.09352 | 28.25100 | 7278 ft | 172 kts | 13° |
| 2026-04-30 14:35 | -26.08195 | 28.25467 | 7827 ft | 173 kts | 13° |
| 2026-04-30 14:36 | -26.07012 | 28.25561 | 8364 ft | 171 kts | 346° |
| 2026-04-30 14:36 | -26.05991 | 28.24912 | 8876 ft | 175 kts | 314° |
| 2026-04-30 14:36 | -26.05469 | 28.23626 | 9158 ft | 200 kts | 279° |
| 2026-04-30 14:36 | -26.05889 | 28.22035 | 9329 ft | 237 kts | 241° |
| 2026-04-30 14:37 | -26.06970 | 28.20552 | 9608 ft | 258 kts | 232° |
| 2026-04-30 14:37 | -26.08282 | 28.19022 | 9923 ft | 284 kts | 229° |
| 2026-04-30 14:37 | -26.09723 | 28.17418 | 10398 ft | 302 kts | 229° |
| 2026-04-30 14:37 | -26.11256 | 28.15707 | 10664 ft | 325 kts | 229° |
| 2026-04-30 14:38 | -26.12896 | 28.13847 | 10923 ft | 346 kts | 229° |
| 2026-04-30 14:38 | -26.14599 | 28.11894 | 11524 ft | 354 kts | 230° |
| 2026-04-30 14:38 | -26.16317 | 28.09907 | 12257 ft | 358 kts | 230° |
| 2026-04-30 14:38 | -26.18037 | 28.07894 | 13015 ft | 360 kts | 230° |
| 2026-04-30 14:39 | -26.19764 | 28.05864 | 13717 ft | 363 kts | 231° |
| 2026-04-30 14:39 | -26.21510 | 28.03811 | 14367 ft | 366 kts | 231° |
| 2026-04-30 14:39 | -26.23273 | 28.01735 | 15009 ft | 370 kts | 231° |
| 2026-04-30 14:40 | -26.26832 | 27.97535 | 16251 ft | 376 kts | 231° |
| 2026-04-30 14:40 | -26.28632 | 27.95416 | 16839 ft | 379 kts | 232° |
| 2026-04-30 14:40 | -26.30452 | 27.93269 | 17436 ft | 382 kts | 232° |
| 2026-04-30 14:40 | -26.32279 | 27.91108 | 17996 ft | 385 kts | 232° |
| 2026-04-30 14:41 | -26.34122 | 27.88931 | 18575 ft | 387 kts | 232° |
| 2026-04-30 14:41 | -26.35973 | 27.86742 | 19117 ft | 390 kts | 232° |
| 2026-04-30 14:41 | -26.37849 | 27.84525 | 19680 ft | 394 kts | 232° |
| 2026-04-30 14:41 | -26.39740 | 27.82294 | 20220 ft | 397 kts | 232° |
| 2026-04-30 14:42 | -26.41640 | 27.80050 | 20758 ft | 399 kts | 232° |
| 2026-04-30 14:42 | -26.43557 | 27.77789 | 21278 ft | 402 kts | 232° |
| 2026-04-30 14:42 | -26.45483 | 27.75511 | 21753 ft | 405 kts | 232° |
| 2026-04-30 14:42 | -26.47422 | 27.73212 | 22218 ft | 408 kts | 232° |
| 2026-04-30 14:43 | -26.49370 | 27.70902 | 22650 ft | 410 kts | 232° |
| 2026-04-30 14:43 | -26.51331 | 27.68574 | 23075 ft | 413 kts | 232° |
| 2026-04-30 14:43 | -26.53277 | 27.66262 | 23485 ft | 415 kts | 232° |
| 2026-04-30 14:43 | -26.55260 | 27.63901 | 23891 ft | 418 kts | 232° |
| 2026-04-30 14:44 | -26.57245 | 27.61529 | 24274 ft | 420 kts | 232° |
| 2026-04-30 14:44 | -26.59242 | 27.59137 | 24672 ft | 422 kts | 232° |
| 2026-04-30 14:44 | -26.61247 | 27.56734 | 25068 ft | 423 kts | 232° |
| 2026-04-30 14:44 | -26.63252 | 27.54326 | 25472 ft | 425 kts | 232° |
| 2026-04-30 14:45 | -26.65273 | 27.51900 | 25867 ft | 426 kts | 232° |
| 2026-04-30 14:45 | -26.67288 | 27.49477 | 26264 ft | 427 kts | 232° |
| 2026-04-30 14:45 | -26.69316 | 27.47040 | 26647 ft | 428 kts | 233° |
| 2026-04-30 14:45 | -26.71352 | 27.44592 | 27016 ft | 430 kts | 233° |
| 2026-04-30 14:46 | -26.73390 | 27.42140 | 27398 ft | 431 kts | 233° |
| 2026-04-30 14:46 | -26.75435 | 27.39681 | 27763 ft | 432 kts | 233° |
| 2026-04-30 14:46 | -26.77488 | 27.37217 | 28134 ft | 433 kts | 233° |
| 2026-04-30 14:46 | -26.79541 | 27.34751 | 28472 ft | 434 kts | 233° |
| 2026-04-30 14:47 | -26.81600 | 27.32273 | 28821 ft | 436 kts | 233° |
| 2026-04-30 14:47 | -26.83672 | 27.29778 | 29167 ft | 437 kts | 233° |
| 2026-04-30 14:47 | -26.85742 | 27.27286 | 29496 ft | 438 kts | 234° |
| 2026-04-30 14:47 | -26.87818 | 27.24783 | 29795 ft | 439 kts | 234° |
| 2026-04-30 14:48 | -26.89896 | 27.22276 | 30120 ft | 440 kts | 234° |
| 2026-04-30 14:48 | -26.91976 | 27.19756 | 30444 ft | 440 kts | 234° |
| 2026-04-30 14:48 | -26.94059 | 27.17233 | 30749 ft | 442 kts | 234° |
| 2026-04-30 14:48 | -26.96145 | 27.14708 | 31046 ft | 443 kts | 234° |
| 2026-04-30 14:49 | -26.98239 | 27.12174 | 31410 ft | 442 kts | 234° |
| 2026-04-30 14:49 | -27.00326 | 27.09655 | 31828 ft | 440 kts | 234° |
| 2026-04-30 14:49 | -27.02403 | 27.07146 | 32142 ft | 438 kts | 234° |
| 2026-04-30 14:49 | -27.04459 | 27.04660 | 32214 ft | 430 kts | 234° |
| 2026-04-30 14:50 | -27.10463 | 26.97381 | 32213 ft | 421 kts | 235° |
| 2026-04-30 14:51 | -27.16402 | 26.90129 | 32210 ft | 420 kts | 235° |
| 2026-04-30 14:52 | -27.22338 | 26.82886 | 32198 ft | 420 kts | 235° |
| 2026-04-30 14:52 | -27.28271 | 26.75659 | 32193 ft | 419 kts | 235° |
| 2026-04-30 14:53 | -27.34182 | 26.68432 | 32185 ft | 419 kts | 236° |
| 2026-04-30 14:54 | -27.42049 | 26.58779 | 32180 ft | 418 kts | 236° |
| 2026-04-30 14:55 | -27.47956 | 26.51545 | 32179 ft | 418 kts | 236° |
| 2026-04-30 14:56 | -27.55767 | 26.41928 | 32179 ft | 417 kts | 236° |
| 2026-04-30 14:57 | -27.61649 | 26.34679 | 32178 ft | 418 kts | 236° |
| 2026-04-30 14:58 | -27.69498 | 26.24998 | 32178 ft | 418 kts | 236° |
| 2026-04-30 14:58 | -27.75366 | 26.17732 | 32177 ft | 418 kts | 237° |
| 2026-04-30 15:00 | -27.85147 | 26.05604 | 32181 ft | 418 kts | 237° |
| 2026-04-30 15:01 | -27.92971 | 25.95876 | 32188 ft | 418 kts | 237° |
| 2026-04-30 15:01 | -27.98831 | 25.88570 | 32189 ft | 418 kts | 237° |
| 2026-04-30 15:02 | -28.02736 | 25.83759 | 32187 ft | 419 kts | 235° |
| 2026-04-30 15:03 | -28.13176 | 25.72080 | 32182 ft | 420 kts | 234° |
| 2026-04-30 15:04 | -28.23436 | 25.60387 | 32176 ft | 419 kts | 235° |
| 2026-04-30 15:06 | -28.33742 | 25.48636 | 32168 ft | 421 kts | 235° |
| 2026-04-30 15:07 | -28.42008 | 25.39176 | 32170 ft | 422 kts | 235° |
| 2026-04-30 15:08 | -28.50286 | 25.29687 | 32173 ft | 423 kts | 235° |
| 2026-04-30 15:09 | -28.60639 | 25.17784 | 32179 ft | 423 kts | 235° |
| 2026-04-30 15:10 | -28.68888 | 25.08278 | 32173 ft | 424 kts | 234° |
| 2026-04-30 15:11 | -28.81314 | 24.93912 | 32178 ft | 424 kts | 235° |
| 2026-04-30 15:13 | -28.91669 | 24.81919 | 32174 ft | 425 kts | 234° |
| 2026-04-30 15:14 | -29.06170 | 24.65017 | 32171 ft | 426 kts | 234° |
| 2026-04-30 15:17 | -29.24895 | 24.43117 | 32162 ft | 429 kts | 234° |
| 2026-04-30 15:19 | -29.41605 | 24.23462 | 32155 ft | 433 kts | 234° |